• Join FlightAware (Why Join?)
  • Login
  • US Flag 
12:46AM EST


 

Airport Tracker/Info


-or-


 

Live Flight TrackerFlight Track Log ✈ UAL4849 ✈ 27-Apr-2013 ✈ KROC - KEWR

Flight Track Log - Related Links

Times and Time Zones

All times are in EDT time to prevent confusion due to time zone crossing. See the UAL4849 flight status page for this flight to view local times or setup timezone preferences in your user account.

Time Position Orientation Groundspeed Altitude Reporting Facility
EDT Latitude Longitude Course Direction KTS MPH feet Rate Location/Type
10:27AM 43.0994 -77.6944 203° Southwest 151 174 1,000  Level Cleveland Center
10:28AM 43.0583 -77.7189 203° Southwest 165 190 2,300 1,236 Climbing Cleveland Center
10:30AM 42.9906 -77.6739 154° Southeast 176 203 4,400 1,236 Climbing Cleveland Center
10:31AM 42.9722 -77.6067 110° East 168 193 5,700 1,400 Climbing Cleveland Center
10:32AM 42.9556 -77.5336 107° East 182 209 7,200 1,270 Climbing Cleveland Center
10:34AM 42.9147 -77.3594 108° East 220 253 9,700 1,181 Climbing New York Center
10:35AM 42.8925 -77.2722 109° East 231 266 10,900 1,300 Climbing New York Center
10:36AM 42.8742 -77.1911 107° East 231 266 12,300 1,091 Climbing New York Center
10:37AM 42.8533 -77.1128 110° East 231 266 13,100 407 Climbing New York Center
10:38AM 42.8342 -77.0403 110° East 231 266 13,100 -50 Level New York Center
10:39AM 42.8039 -76.9411 113° Southeast 241 277 13,000 -50 Descending New York Center
10:40AM 42.7644 -76.8583 123° Southeast 252 290 13,000 50 Level New York Center
10:41AM 42.7272 -76.7731 121° Southeast 264 304 13,100 50 Climbing New York Center
10:42AM 42.6897 -76.6906 122° Southeast 264 304 13,100  Level New York Center
10:43AM 42.6525 -76.6028 120° Southeast 264 304 13,100  Level New York Center
10:44AM 42.6150 -76.5175 121° Southeast 264 304 13,100  Level New York Center
10:45AM 42.5739 -76.4386 125° Southeast 267 307 13,100  Level Boston Center
10:46AM 42.5372 -76.3517 120° Southeast 267 307 13,100  Level Boston Center
10:47AM 42.4983 -76.2675 122° Southeast 267 307 13,100  Level Boston Center
10:48AM 42.4694 -76.1981 119° Southeast 262 302 13,100  Level Boston Center
10:49AM 42.4228 -76.0997 123° Southeast 262 302 13,100  Level Boston Center
10:50AM 42.3836 -76.0158 122° Southeast 267 307 13,100  Level Boston Center
10:51AM 42.3447 -75.9264 120° Southeast 268 308 13,100  Level Boston Center
10:52AM 42.3056 -75.8400 121° Southeast 268 308 13,100  Level Boston Center
10:53AM 42.2625 -75.7450 121° Southeast 268 308 13,100  Level Boston Center
10:54AM 42.2256 -75.6589 120° Southeast 268 308 13,100  Level Boston Center
10:55AM 42.1861 -75.5756 123° Southeast 268 308 13,100  Level Boston Center
10:56AM 42.1467 -75.4897 122° Southeast 268 308 13,100  Level Boston Center
10:57AM 42.1075 -75.4039 122° Southeast 268 308 13,100 -50 Level Boston Center
10:58AM 42.0658 -75.3208 124° Southeast 268 308 13,000  Descending Boston Center
10:59AM 42.0325 -75.2325 117° Southeast 263 303 13,100 50 Climbing Boston Center
11:00AM 42.0014 -75.1444 115° Southeast 263 303 13,100  Level Boston Center
11:01AM 41.9678 -75.0622 119° Southeast 263 303 13,100  Level Boston Center
11:02AM 41.9344 -74.9742 117° Southeast 251 289 13,100 -50 Level Boston Center
11:03AM 41.9050 -74.8922 116° Southeast 251 289 13,000 -545 Descending Boston Center
11:04AM 41.8692 -74.8042 119° Southeast 251 289 11,900 -1,063 Descending Boston Center
11:06AM 41.8000 -74.6233 117° Southeast 251 289 9,600 -1,133 Descending Boston Center
11:07AM 41.7722 -74.5528 118° Southeast 244 281 8,500 -1,150 Descending Boston Center
11:08AM 41.7078 -74.5369 170° South 210 242 7,300 -700 Descending Boston Center
11:09AM 41.6492 -74.5461 187° South 216 249 7,100 -200 Descending Boston Center
11:10AM 41.5781 -74.5603 188° South 242 278 6,900 -500 Descending Boston Center
11:11AM 41.5217 -74.5694 187° South 237 273 6,100 -310 Descending Boston Center
11:13AM 41.4167 -74.5833 186° South 223 257 6,100  Level New York TRACON
11:14AM 41.3500 -74.6167 201° Southwest 218 251 6,100  Level New York TRACON
11:15AM 41.3000 -74.6333 194° South 221 254 6,100 -50 Level New York TRACON
11:16AM 41.2500 -74.6000 153° Southeast 226 260 6,000  Descending New York TRACON
11:17AM 41.1833 -74.5833 169° South 227 261 6,100 50 Climbing New York TRACON
11:18AM 41.1333 -74.5833 180° South 228 262 6,100  Level New York TRACON
11:19AM 41.0500 -74.5667 171° South 228 262 6,100  Level New York TRACON
11:20AM 41.0000 -74.5667 180° South 228 262 6,100  Level New York TRACON
11:21AM 40.9333 -74.5667 180° South 231 266 6,100  Level New York TRACON
11:22AM 40.8667 -74.5667 180° South 233 268 6,100  Level New York TRACON
11:23AM 40.8000 -74.5667 180° South 231 266 6,100  Level New York TRACON
11:24AM 40.7333 -74.5667 180° South 234 269 6,100 -150 Level New York TRACON
11:25AM 40.6667 -74.5667 180° South 234 269 5,800 -476 Descending New York TRACON
11:26AM 40.6000 -74.5500 169° South 220 253 5,100 -350 Descending New York TRACON
11:27AM 40.5500 -74.5167 153° Southeast 220 253 5,100 -316 Level New York TRACON
11:28AM 40.5000 -74.4667 143° Southeast 221 254 4,500 -714 Descending New York TRACON
11:29AM 40.4500 -74.4167 143° Southeast 218 251 3,600 -667 Descending New York TRACON
11:30AM 40.4500 -74.3500 90° East 192 221 3,100 -250 Descending New York TRACON
11:31AM 40.4833 -74.3000 49° Northeast 185 213 3,100  Level New York TRACON
11:32AM 40.5167 -74.2667 37° Northeast 177 204 3,100 -250 Level New York TRACON
11:33AM 40.5667 -74.2500 14° North 181 208 2,600 -750 Descending New York TRACON
11:34AM 40.6167 -74.2167 27° Northeast 171 197 1,600 -905 Descending New York TRACON
11:35AM 40.6500 -74.1833 37° Northeast 148 170 700 -818 Descending New York TRACON
11:37AM 40.6833 -74.1667 25° Northeast  Level FlightAware Approximate